Decoded Metar for LZZI (ZILINA in SLOVAKIA) (IATA:N/A) | Meteo·Mobile Aviation Weather
aviador You're here:

LZZI Decoded Metar

ZILINA in SLOVAKIA
Report Time2019-07-16 10:34:00
UTC Time2019-07-16 10:42:43
Flight Rules vfr VFR
Wind240° at 09 kt
W.Decomp.*RWY 24: 9.0 kt HW 0.5 kt LCW
Visibility9999 m
Phenomena:N/A
Clouds:Broken 049 Hf
Expected CloudBase > 4,800 ft AGL from Temp-Dew spread
Ceiling4,900 ft
Temp24°C (ISA +11)
Dew Point12°C (47% RH)
AAT21.4°C
QNH1012 hPa
Density Alt2,523 ft
Elevation1,020 ft
Report Wrong Elevation
Raw Report
SPECI LZZI 161034Z 24009KT 220V280 9999 BKN049 24/12 Q1012=

Extra information for LZZI:More info

Metar Taf Metar & Taf Last 4 Metars F.Rules Stats Wind Profile Meteogram Temp Stats Airport Information Weather charts Add Link Nearby VenuesMetar ALERT Operation Metar Decoded Social comments